Time;durP1;ratioP1;P1;durP2;ratioP2;P2;SDS_P1;SDS_P2;PMS_P1;PMS_P2;Temp;Humidity;BMP_temperature;BMP_pressure;BME280_temperature;BME280_humidity;BME280_pressure;Samples;Min_cycle;Max_cycle;Signal;HPM_P1;HPM_P2
2021/05/06 00:29:59;;;;;;;;;;;19.10;99.90;;;;;;5017155;28;19936;-72
2021/05/06 00:32:28;;;;;;;;;;;19.10;99.90;;;;;;5016068;28;20299;-74
2021/05/06 00:34:55;;;;;;;;;;;19.10;99.90;;;;;;5016366;28;19967;-73
2021/05/06 00:37:22;;;;;;;;;;;19.20;99.90;;;;;;4998613;28;19910;-73
2021/05/06 00:40:04;;;;;;;;;;;19.20;99.90;;;;;;5016477;28;19913;-71
2021/05/06 00:42:42;;;;;;;;;;;19.20;99.90;;;;;;5016341;28;19921;-72
2021/05/06 01:01:40;;;;;;;;;;;19.30;99.90;;;;;;5008536;28;19925;-73
2021/05/06 01:09:21;;;;;;;;;;;19.30;99.90;;;;;;5015396;28;20283;-73
2021/05/06 01:12:05;;;;;;;;;;;19.30;99.90;;;;;;5015263;28;19992;-72
2021/05/06 01:14:33;;;;;;;;;;;19.30;99.90;;;;;;5015025;28;19910;-72
2021/05/06 01:16:59;;;;;;;;;;;19.30;99.90;;;;;;5015605;28;19910;-72
2021/05/06 01:19:26;;;;;;;;;;;19.30;99.90;;;;;;5015918;28;19916;-73
2021/05/06 01:21:54;;;;;;;;;;;19.20;99.90;;;;;;4998044;28;20364;-72
2021/05/06 01:24:21;;;;;;;;;;;19.20;99.90;;;;;;5015617;28;19977;-72
2021/05/06 01:27:00;;;;;;;;;;;19.20;99.90;;;;;;5015459;28;20369;-71
2021/05/06 01:29:31;;;;;;;;;;;19.20;99.90;;;;;;5023314;28;19909;-71
2021/05/06 01:34:45;;;;;;;;;;;19.20;99.90;;;;;;5025834;28;19920;-72
2021/05/06 01:37:31;;;;;;;;;;;19.20;99.90;;;;;;5015575;28;19971;-72
2021/05/06 01:43:00;;;;;;;;;;;19.20;99.90;;;;;;5015298;28;19928;-72
2021/05/06 01:59:12;;;;;;;;;;;19.20;99.90;;;;;;5014805;28;19932;-72
2021/05/06 02:01:39;;;;;;;;;;;19.20;99.90;;;;;;5015083;28;20313;-73
2021/05/06 02:04:06;;;;;;;;;;;19.20;99.90;;;;;;5015163;28;19913;-73
2021/05/06 02:06:32;;;;;;;;;;;19.20;99.90;;;;;;5008019;28;19917;-72
2021/05/06 02:08:59;;;;;;;;;;;19.20;99.90;;;;;;4999504;28;20415;-72
2021/05/06 02:11:26;;;;;;;;;;;19.20;99.90;;;;;;4994533;28;19913;-72
2021/05/06 02:13:54;;;;;;;;;;;19.20;99.90;;;;;;4976655;28;19913;-72
2021/05/06 02:16:32;;;;;;;;;;;19.30;99.90;;;;;;4994730;28;20333;-72
2021/05/06 02:18:59;;;;;;;;;;;19.40;99.90;;;;;;4994586;28;19909;-72
2021/05/06 02:21:26;;;;;;;;;;;19.50;99.90;;;;;;4994511;28;19950;-72
2021/05/06 02:23:58;;;;;;;;;;;19.50;99.90;;;;;;4994326;28;19914;-73
2021/05/06 02:26:25;;;;;;;;;;;19.40;99.90;;;;;;4994605;28;20002;-73
2021/05/06 02:28:52;;;;;;;;;;;19.30;99.90;;;;;;4992993;28;20353;-74
2021/05/06 02:31:18;;;;;;;;;;;19.40;99.90;;;;;;4977134;28;19910;-72
2021/05/06 02:33:47;;;;;;;;;;;19.40;99.90;;;;;;4994061;28;19917;-71
2021/05/06 02:36:13;;;;;;;;;;;19.40;99.90;;;;;;4993657;28;19920;-72
2021/05/06 02:38:40;;;;;;;;;;;19.40;99.90;;;;;;4994293;28;19910;-72
2021/05/06 02:41:07;;;;;;;;;;;19.50;99.90;;;;;;4993472;28;19918;-72
2021/05/06 02:43:33;;;;;;;;;;;19.60;99.90;;;;;;4993981;28;20012;-71
2021/05/06 02:46:00;;;;;;;;;;;19.70;99.90;;;;;;4993533;28;19914;-71
2021/05/06 02:48:28;;;;;;;;;;;19.70;99.90;;;;;;4994355;28;19917;-71
2021/05/06 02:50:58;;;;;;;;;;;19.70;99.90;;;;;;4992652;28;19960;-71
2021/05/06 02:53:29;;;;;;;;;;;19.70;99.90;;;;;;4994282;28;19972;-72
2021/05/06 03:03:54;;;;;;;;;;;19.50;99.90;;;;;;5002004;28;19957;-70
2021/05/06 03:06:27;;;;;;;;;;;19.50;99.90;;;;;;4993006;28;19913;-70
2021/05/06 03:08:58;;;;;;;;;;;19.40;99.90;;;;;;4993953;28;19917;-70
2021/05/06 03:24:55;;;;;;;;;;;19.10;99.90;;;;;;4994116;28;19921;-71
2021/05/06 03:27:27;;;;;;;;;;;18.90;99.90;;;;;;4993713;28;19913;-71
2021/05/06 03:30:30;;;;;;;;;;;19.00;99.90;;;;;;4993675;28;19914;-71
2021/05/06 03:32:58;;;;;;;;;;;18.90;99.90;;;;;;4991843;28;20008;-70
2021/05/06 04:37:50;;;;;;;;;;;19.20;99.90;;;;;;4997330;28;19936;-72
2021/05/06 04:55:56;;;;;;;;;;;19.30;99.90;;;;;;4963849;28;19941;-72
2021/05/06 04:58:59;;;;;;;;;;;19.30;99.90;;;;;;4995682;28;20384;-70
2021/05/06 05:04:24;;;;;;;;;;;19.40;99.90;;;;;;4997331;28;19916;-71
2021/05/06 05:25:08;;;;;;;;;;;19.80;99.90;;;;;;4996098;28;19940;-71
2021/05/06 05:27:35;;;;;;;;;;;19.90;99.90;;;;;;4996048;28;19995;-71
2021/05/06 05:30:01;;;;;;;;;;;20.00;99.90;;;;;;4996252;28;19956;-71
2021/05/06 05:32:28;;;;;;;;;;;20.10;99.90;;;;;;4995937;28;19910;-71
2021/05/06 05:35:08;;;;;;;;;;;20.10;99.90;;;;;;4995704;28;19909;-69
2021/05/06 05:37:42;;;;;;;;;;;20.20;99.90;;;;;;4995960;28;19909;-70
2021/05/06 05:56:24;;;;;;;;;;;20.10;99.90;;;;;;4996867;28;19920;-70
2021/05/06 05:58:51;;;;;;;;;;;20.10;99.90;;;;;;5010450;28;19946;-70
2021/05/06 06:01:18;;;;;;;;;;;20.00;99.90;;;;;;4994973;28;19918;-71
2021/05/06 06:03:44;;;;;;;;;;;20.00;99.90;;;;;;4995242;28;19910;-71
2021/05/06 06:06:11;;;;;;;;;;;20.00;99.90;;;;;;4994203;28;19910;-71
2021/05/06 06:08:38;;;;;;;;;;;20.00;99.90;;;;;;4995008;28;19946;-71
2021/05/06 06:11:04;;;;;;;;;;;19.90;99.90;;;;;;4994230;28;19975;-70
2021/05/06 06:13:32;;;;;;;;;;;19.90;99.90;;;;;;4995318;28;19910;-69
2021/05/06 06:16:10;;;;;;;;;;;19.90;99.90;;;;;;4995113;28;19918;-68
2021/05/06 06:23:46;;;;;;;;;;;19.70;99.90;;;;;;4995409;28;19910;-68
2021/05/06 06:26:17;;;;;;;;;;;19.70;99.90;;;;;;4995096;28;19997;-68
2021/05/06 06:28:49;;;;;;;;;;;19.60;99.90;;;;;;4995546;28;19914;-71
2021/05/06 06:31:29;;;;;;;;;;;19.50;99.90;;;;;;5009331;28;19914;-69
2021/05/06 06:33:57;;;;;;;;;;;19.50;99.90;;;;;;4995951;28;19910;-71
2021/05/06 06:36:23;;;;;;;;;;;19.50;99.90;;;;;;4995164;28;19913;-69
2021/05/06 06:38:50;;;;;;;;;;;19.50;99.90;;;;;;4977357;28;20008;-69
2021/05/06 06:41:17;;;;;;;;;;;19.50;99.90;;;;;;4994850;28;20009;-69
2021/05/06 06:43:50;;;;;;;;;;;19.40;99.90;;;;;;4994703;28;21442;-69
2021/05/06 06:46:17;;;;;;;;;;;19.40;99.90;;;;;;4995166;28;20468;-69
2021/05/06 06:48:44;;;;;;;;;;;19.40;99.90;;;;;;4994659;28;19917;-69
2021/05/06 06:51:11;;;;;;;;;;;19.40;99.90;;;;;;4994677;28;19913;-69
2021/05/06 06:53:39;;;;;;;;;;;19.40;99.90;;;;;;4994386;28;19910;-68
2021/05/06 06:56:06;;;;;;;;;;;19.40;99.90;;;;;;4994519;28;20277;-68
2021/05/06 06:58:33;;;;;;;;;;;19.30;99.90;;;;;;4994451;28;20001;-69
2021/05/06 07:01:00;;;;;;;;;;;19.30;99.90;;;;;;4992753;28;19926;-68
2021/05/06 07:03:27;;;;;;;;;;;19.30;99.90;;;;;;4994035;28;19910;-69
2021/05/06 07:05:54;;;;;;;;;;;19.30;99.90;;;;;;4994240;28;19956;-68
2021/05/06 07:08:27;;;;;;;;;;;19.30;99.90;;;;;;4994408;28;20319;-68
2021/05/06 07:10:54;;;;;;;;;;;19.30;99.90;;;;;;4994099;28;19957;-69
2021/05/06 07:13:26;;;;;;;;;;;19.20;99.90;;;;;;4993327;28;19949;-68
2021/05/06 07:16:01;;;;;;;;;;;19.30;99.90;;;;;;4994695;28;19914;-68
2021/05/06 07:18:34;;;;;;;;;;;19.20;99.90;;;;;;4981122;28;19910;-69
2021/05/06 07:21:01;;;;;;;;;;;19.30;99.90;;;;;;5005829;28;19921;-70
2021/05/06 07:23:28;;;;;;;;;;;19.30;99.90;;;;;;5005277;28;19916;-71
2021/05/06 07:25:56;;;;;;;;;;;19.30;99.90;;;;;;4994586;28;19910;-70
2021/05/06 07:28:24;;;;;;;;;;;19.30;99.90;;;;;;4994202;28;19914;-70
2021/05/06 07:30:51;;;;;;;;;;;19.30;99.90;;;;;;4993912;28;19937;-70
2021/05/06 07:33:19;;;;;;;;;;;19.20;99.90;;;;;;4994556;28;19910;-71
2021/05/06 07:35:49;;;;;;;;;;;19.10;99.90;;;;;;4977202;28;19952;-72
2021/05/06 07:38:15;;;;;;;;;;;19.00;99.90;;;;;;4994271;28;20001;-71
2021/05/06 07:40:45;;;;;;;;;;;19.00;99.90;;;;;;4991526;28;19922;-71
2021/05/06 07:43:13;;;;;;;;;;;18.90;99.90;;;;;;4991918;28;19930;-71
2021/05/06 07:45:43;;;;;;;;;;;18.90;99.90;;;;;;4991928;28;19920;-71
2021/05/06 07:48:10;;;;;;;;;;;18.90;99.90;;;;;;4991857;28;19914;-70
2021/05/06 07:50:36;;;;;;;;;;;18.90;99.90;;;;;;4991939;28;19960;-71
2021/05/06 07:53:06;;;;;;;;;;;18.90;99.90;;;;;;4991633;28;20430;-71
2021/05/06 07:55:34;;;;;;;;;;;18.90;99.90;;;;;;4991693;28;20437;-69
2021/05/06 07:58:01;;;;;;;;;;;18.90;99.90;;;;;;4990473;28;19963;-69
2021/05/06 08:00:28;;;;;;;;;;;18.90;99.90;;;;;;4991388;28;19918;-69
2021/05/06 08:02:55;;;;;;;;;;;18.90;99.90;;;;;;4992154;28;19918;-72
2021/05/06 08:05:23;;;;;;;;;;;18.90;99.90;;;;;;4992090;28;19910;-70
2021/05/06 08:07:50;;;;;;;;;;;18.90;99.90;;;;;;4991855;28;19996;-70
2021/05/06 08:10:17;;;;;;;;;;;18.80;99.90;;;;;;4991281;28;20383;-71
2021/05/06 08:12:45;;;;;;;;;;;18.90;99.90;;;;;;4991129;28;19910;-72
2021/05/06 08:15:12;;;;;;;;;;;18.80;99.90;;;;;;4988924;28;19910;-70
2021/05/06 08:17:39;;;;;;;;;;;18.80;99.90;;;;;;4973956;28;19972;-71
2021/05/06 08:20:08;;;;;;;;;;;18.80;99.90;;;;;;4991361;28;20198;-70
2021/05/06 08:22:35;;;;;;;;;;;18.90;99.90;;;;;;4991661;28;19913;-71
2021/05/06 08:25:04;;;;;;;;;;;18.80;99.90;;;;;;4990747;28;19941;-70
2021/05/06 08:27:31;;;;;;;;;;;18.90;99.90;;;;;;4991480;28;20288;-72
2021/05/06 08:30:00;;;;;;;;;;;18.90;99.90;;;;;;4991520;28;19910;-71
2021/05/06 08:32:27;;;;;;;;;;;18.90;99.90;;;;;;4991566;28;19949;-72
2021/05/06 08:34:54;;;;;;;;;;;18.90;99.90;;;;;;4993663;28;19949;-71
2021/05/06 08:37:21;;;;;;;;;;;18.90;99.90;;;;;;4995198;28;19910;-70
2021/05/06 08:39:48;;;;;;;;;;;18.90;99.90;;;;;;4994679;28;19914;-70
2021/05/06 08:42:15;;;;;;;;;;;18.90;99.90;;;;;;4994684;28;20288;-71
2021/05/06 08:44:43;;;;;;;;;;;18.90;99.90;;;;;;4994877;28;19910;-70
2021/05/06 08:47:29;;;;;;;;;;;18.90;99.90;;;;;;5000103;28;19914;-70
2021/05/06 08:49:56;;;;;;;;;;;18.90;99.90;;;;;;5006182;28;20346;-70
2021/05/06 08:52:23;;;;;;;;;;;19.00;99.90;;;;;;5003467;28;19914;-70
2021/05/06 08:54:51;;;;;;;;;;;18.90;99.90;;;;;;4994110;28;19910;-69
2021/05/06 08:57:22;;;;;;;;;;;18.90;99.90;;;;;;4994564;28;19910;-70
2021/05/06 08:59:48;;;;;;;;;;;18.90;99.90;;;;;;4994244;28;20008;-72
2021/05/06 09:02:16;;;;;;;;;;;18.90;99.90;;;;;;4993639;28;20029;-73
2021/05/06 09:04:44;;;;;;;;;;;18.90;99.90;;;;;;4977081;28;19914;-73
2021/05/06 09:07:11;;;;;;;;;;;18.90;99.90;;;;;;4996310;28;19910;-74
2021/05/06 09:09:58;;;;;;;;;;;18.80;99.90;;;;;;4996590;28;19936;-72
2021/05/06 09:12:36;;;;;;;;;;;18.80;99.90;;;;;;4996090;28;19910;-74
2021/05/06 09:15:15;;;;;;;;;;;18.80;99.90;;;;;;4996087;28;19933;-75
2021/05/06 09:17:42;;;;;;;;;;;18.80;99.90;;;;;;4995958;28;19910;-73
2021/05/06 09:20:21;;;;;;;;;;;18.80;99.90;;;;;;4995970;28;19914;-72
2021/05/06 09:22:49;;;;;;;;;;;18.80;99.90;;;;;;4995774;28;20361;-75
2021/05/06 09:25:29;;;;;;;;;;;18.80;99.90;;;;;;4995313;28;19909;-74
2021/05/06 09:28:15;;;;;;;;;;;18.80;99.90;;;;;;4995856;28;19909;-72
2021/05/06 09:30:52;;;;;;;;;;;18.80;99.90;;;;;;4995894;28;19964;-72
2021/05/06 09:33:29;;;;;;;;;;;18.80;99.90;;;;;;4995783;28;19956;-73
2021/05/06 09:35:56;;;;;;;;;;;18.70;99.90;;;;;;4995735;28;19909;-73
2021/05/06 09:38:24;;;;;;;;;;;18.70;99.90;;;;;;4995773;28;19914;-74
2021/05/06 09:40:52;;;;;;;;;;;18.80;99.90;;;;;;4994644;28;20384;-72
2021/05/06 09:43:23;;;;;;;;;;;18.70;99.90;;;;;;4995226;28;19950;-74
2021/05/06 09:45:50;;;;;;;;;;;18.70;99.90;;;;;;4995672;28;20364;-72
2021/05/06 09:48:17;;;;;;;;;;;18.70;99.90;;;;;;4995446;28;19953;-74
2021/05/06 09:50:45;;;;;;;;;;;18.60;99.90;;;;;;4995206;28;19910;-73
2021/05/06 09:53:16;;;;;;;;;;;18.60;99.90;;;;;;4995375;28;19914;-74
2021/05/06 09:55:49;;;;;;;;;;;18.60;99.90;;;;;;4994969;28;19936;-73
2021/05/06 09:58:23;;;;;;;;;;;18.60;99.90;;;;;;4995377;28;19916;-72
2021/05/06 10:00:51;;;;;;;;;;;18.70;99.90;;;;;;4995385;28;19928;-75
2021/05/06 10:03:21;;;;;;;;;;;18.70;99.90;;;;;;4995265;28;19953;-75
2021/05/06 10:05:49;;;;;;;;;;;18.70;99.90;;;;;;4995270;28;19949;-73
2021/05/06 10:08:17;;;;;;;;;;;18.70;99.90;;;;;;4995204;28;19914;-72
2021/05/06 10:10:44;;;;;;;;;;;18.70;99.90;;;;;;4994343;28;20004;-73
2021/05/06 10:13:11;;;;;;;;;;;18.70;99.90;;;;;;4994956;28;19910;-75
2021/05/06 10:15:39;;;;;;;;;;;18.70;99.90;;;;;;4995788;28;19909;-75
2021/05/06 10:18:06;;;;;;;;;;;18.70;99.90;;;;;;4997840;28;19910;-73
2021/05/06 10:20:33;;;;;;;;;;;18.70;99.90;;;;;;4998455;28;19964;-74
2021/05/06 10:23:00;;;;;;;;;;;18.70;99.90;;;;;;4977204;28;20207;-75
2021/05/06 10:25:27;;;;;;;;;;;18.80;99.90;;;;;;4994257;28;19965;-73
2021/05/06 10:27:56;;;;;;;;;;;18.80;99.90;;;;;;4994674;28;20336;-75
2021/05/06 10:30:23;;;;;;;;;;;18.80;99.90;;;;;;4994619;28;19920;-74
2021/05/06 10:32:50;;;;;;;;;;;18.80;99.90;;;;;;4994574;28;19993;-74
2021/05/06 10:35:25;;;;;;;;;;;18.80;99.90;;;;;;4994767;28;19972;-74
2021/05/06 10:37:56;;;;;;;;;;;18.80;99.90;;;;;;4994140;28;20304;-73
2021/05/06 10:40:23;;;;;;;;;;;18.80;99.90;;;;;;4994352;28;19916;-72
2021/05/06 10:42:51;;;;;;;;;;;18.80;99.90;;;;;;4994133;28;19996;-73
2021/05/06 10:45:21;;;;;;;;;;;18.80;99.90;;;;;;4994499;28;20365;-69
2021/05/06 10:47:55;;;;;;;;;;;18.80;99.90;;;;;;4994385;28;19916;-72
2021/05/06 10:50:21;;;;;;;;;;;18.80;99.90;;;;;;4994470;28;20107;-71
2021/05/06 10:52:52;;;;;;;;;;;18.80;99.90;;;;;;4994344;28;19937;-70
2021/05/06 10:55:37;;;;;;;;;;;18.80;99.90;;;;;;4993397;28;20009;-72
2021/05/06 10:58:22;;;;;;;;;;;18.70;99.90;;;;;;4994099;28;19909;-70
2021/05/06 11:01:10;;;;;;;;;;;18.80;99.90;;;;;;4993734;28;19957;-73
2021/05/06 11:03:37;;;;;;;;;;;18.80;99.90;;;;;;4994125;28;19910;-70
2021/05/06 11:06:04;;;;;;;;;;;18.80;99.90;;;;;;4976402;28;20335;-72
2021/05/06 11:08:37;;;;;;;;;;;18.80;99.90;;;;;;4993996;28;19909;-71
2021/05/06 11:11:06;;;;;;;;;;;18.80;99.90;;;;;;4993584;28;19933;-72
2021/05/06 11:13:51;;;;;;;;;;;18.80;99.90;;;;;;4994010;28;19992;-70
2021/05/06 11:16:18;;;;;;;;;;;18.80;99.90;;;;;;4993890;28;20023;-73
2021/05/06 11:18:48;;;;;;;;;;;18.80;99.90;;;;;;4993683;28;19910;-70
2021/05/06 11:21:40;;;;;;;;;;;18.80;99.90;;;;;;4993721;28;19918;-70
2021/05/06 11:24:25;;;;;;;;;;;18.80;99.90;;;;;;4986783;28;19909;-71
2021/05/06 11:27:21;;;;;;;;;;;18.80;99.90;;;;;;4993580;28;20000;-70
2021/05/06 11:29:47;;;;;;;;;;;18.80;99.90;;;;;;4993669;28;19910;-72
2021/05/06 11:32:20;;;;;;;;;;;18.80;99.90;;;;;;4993660;28;19910;-72
2021/05/06 11:34:49;;;;;;;;;;;18.80;99.90;;;;;;4993678;28;19980;-73
2021/05/06 11:37:18;;;;;;;;;;;18.80;99.90;;;;;;5005592;28;19913;-71
2021/05/06 11:39:55;;;;;;;;;;;18.80;99.90;;;;;;4993200;28;19968;-71
2021/05/06 11:42:23;;;;;;;;;;;18.80;99.90;;;;;;4998828;28;20277;-71
2021/05/06 11:45:09;;;;;;;;;;;18.80;99.90;;;;;;4994389;28;19924;-71
2021/05/06 11:47:35;;;;;;;;;;;18.80;99.90;;;;;;5012138;28;19910;-70
2021/05/06 11:50:15;;;;;;;;;;;18.80;99.90;;;;;;5013255;28;19914;-72
2021/05/06 11:52:42;;;;;;;;;;;18.80;99.90;;;;;;5012477;28;19913;-71
2021/05/06 11:55:09;;;;;;;;;;;18.80;99.90;;;;;;5012636;28;19964;-69
2021/05/06 11:57:36;;;;;;;;;;;18.80;99.90;;;;;;5010580;28;19922;-70
2021/05/06 12:00:03;;;;;;;;;;;18.90;99.90;;;;;;4993403;28;20114;-70
2021/05/06 12:02:29;;;;;;;;;;;18.80;99.90;;;;;;5010947;28;19971;-71
2021/05/06 12:04:59;;;;;;;;;;;18.80;99.90;;;;;;5010884;28;19996;-70
2021/05/06 12:07:30;;;;;;;;;;;18.90;99.90;;;;;;5011079;28;19910;-70
2021/05/06 12:10:06;;;;;;;;;;;18.90;99.90;;;;;;5014429;28;19959;-70
2021/05/06 12:12:33;;;;;;;;;;;18.90;99.90;;;;;;5014637;28;20454;-70
2021/05/06 12:15:00;;;;;;;;;;;18.90;99.90;;;;;;5014487;28;20280;-72
2021/05/06 12:17:27;;;;;;;;;;;18.90;99.90;;;;;;5014855;28;19955;-69
2021/05/06 12:19:58;;;;;;;;;;;19.00;99.90;;;;;;5014882;28;20009;-71
2021/05/06 12:22:25;;;;;;;;;;;19.00;99.90;;;;;;5013858;28;19965;-70
2021/05/06 12:24:54;;;;;;;;;;;18.90;99.90;;;;;;5014315;28;19913;-69
2021/05/06 12:27:22;;;;;;;;;;;19.00;99.90;;;;;;5014357;28;19909;-72
2021/05/06 12:29:50;;;;;;;;;;;18.90;99.90;;;;;;5014560;28;19913;-72
2021/05/06 12:32:47;;;;;;;;;;;18.90;99.90;;;;;;5014464;28;20012;-69
2021/05/06 12:35:15;;;;;;;;;;;18.90;99.90;;;;;;5013589;28;19910;-71
2021/05/06 12:37:44;;;;;;;;;;;18.90;99.90;;;;;;5013637;28;20051;-72
2021/05/06 12:40:13;;;;;;;;;;;18.90;99.90;;;;;;5014341;28;19936;-70
2021/05/06 12:42:40;;;;;;;;;;;18.90;99.90;;;;;;5014163;28;20016;-72
2021/05/06 12:45:19;;;;;;;;;;;18.80;99.90;;;;;;5014050;28;20260;-72
2021/05/06 12:47:48;;;;;;;;;;;18.80;99.90;;;;;;5014195;28;20048;-73
2021/05/06 12:50:19;;;;;;;;;;;18.80;99.90;;;;;;4996053;28;19959;-72
2021/05/06 12:52:47;;;;;;;;;;;18.80;99.90;;;;;;5013590;28;19925;-74
2021/05/06 12:55:30;;;;;;;;;;;18.70;99.90;;;;;;5013751;28;19918;-72
2021/05/06 12:58:23;;;;;;;;;;;18.70;99.90;;;;;;5014051;28;20009;-73
2021/05/06 13:00:56;;;;;;;;;;;18.70;99.90;;;;;;5013876;28;19917;-72
2021/05/06 13:03:31;;;;;;;;;;;18.70;99.90;;;;;;5013726;28;20387;-73
2021/05/06 13:06:24;;;;;;;;;;;18.60;99.90;;;;;;5013885;28;20381;-74
2021/05/06 13:08:50;;;;;;;;;;;18.70;99.90;;;;;;5010266;28;20369;-73
2021/05/06 13:11:21;;;;;;;;;;;18.70;99.90;;;;;;5013591;28;20283;-74
2021/05/06 13:13:52;;;;;;;;;;;18.70;99.90;;;;;;5013802;28;19910;-74
2021/05/06 13:16:35;;;;;;;;;;;18.70;99.90;;;;;;5013422;28;20327;-74
2021/05/06 13:19:03;;;;;;;;;;;18.70;99.90;;;;;;5013103;28;20015;-73
2021/05/06 13:21:30;;;;;;;;;;;18.70;99.90;;;;;;5013582;28;19924;-73
2021/05/06 13:23:56;;;;;;;;;;;18.60;99.90;;;;;;5013432;28;19940;-73
2021/05/06 13:26:39;;;;;;;;;;;18.60;99.90;;;;;;5013393;28;19923;-72
2021/05/06 13:29:08;;;;;;;;;;;18.50;99.90;;;;;;5012752;28;19999;-73
2021/05/06 13:31:38;;;;;;;;;;;18.40;99.90;;;;;;5013475;28;19913;-73
2021/05/06 13:34:13;;;;;;;;;;;18.30;99.90;;;;;;5013632;28;19940;-71
2021/05/06 13:36:41;;;;;;;;;;;18.30;99.90;;;;;;5013330;28;19936;-72
2021/05/06 13:39:08;;;;;;;;;;;18.20;99.90;;;;;;5013068;28;19909;-73
2021/05/06 13:41:36;;;;;;;;;;;18.20;99.90;;;;;;5012812;28;19925;-73
2021/05/06 13:44:04;;;;;;;;;;;18.10;99.90;;;;;;5013284;28;19921;-71
2021/05/06 13:46:33;;;;;;;;;;;18.20;99.90;;;;;;5013237;28;19993;-72
2021/05/06 13:49:00;;;;;;;;;;;18.20;99.90;;;;;;5012919;28;19914;-73
2021/05/06 13:51:27;;;;;;;;;;;18.20;99.90;;;;;;5013098;28;19989;-72
2021/05/06 13:53:54;;;;;;;;;;;18.20;99.90;;;;;;5012432;28;19909;-73
2021/05/06 13:56:21;;;;;;;;;;;18.20;99.90;;;;;;5012896;28;19913;-74
2021/05/06 13:58:48;;;;;;;;;;;18.20;99.90;;;;;;5012761;28;19916;-74
2021/05/06 14:01:15;;;;;;;;;;;18.20;99.90;;;;;;5012781;28;19944;-74
2021/05/06 14:03:42;;;;;;;;;;;18.20;99.90;;;;;;5012778;28;19917;-71
2021/05/06 14:06:09;;;;;;;;;;;18.20;99.90;;;;;;5012905;28;19913;-74
2021/05/06 14:08:36;;;;;;;;;;;18.20;99.90;;;;;;5012324;28;19920;-74
2021/05/06 14:11:03;;;;;;;;;;;18.20;99.90;;;;;;5012361;28;19913;-73
2021/05/06 14:13:31;;;;;;;;;;;18.20;99.90;;;;;;4994930;28;19921;-73
2021/05/06 14:15:58;;;;;;;;;;;18.20;99.90;;;;;;5012478;28;20261;-74
2021/05/06 14:18:25;;;;;;;;;;;18.20;99.90;;;;;;5012419;28;19910;-72
2021/05/06 14:20:54;;;;;;;;;;;18.20;99.90;;;;;;5011948;28;19918;-72
2021/05/06 14:23:22;;;;;;;;;;;18.30;99.90;;;;;;5012597;28;19913;-70
2021/05/06 14:25:48;;;;;;;;;;;18.30;99.90;;;;;;5012474;28;19917;-72
2021/05/06 14:28:15;;;;;;;;;;;18.30;99.90;;;;;;5012877;28;19910;-73
2021/05/06 14:30:42;;;;;;;;;;;18.30;99.90;;;;;;5011859;28;20241;-72
2021/05/06 14:33:09;;;;;;;;;;;18.40;99.90;;;;;;5012539;28;19913;-71
2021/05/06 14:35:35;;;;;;;;;;;18.40;99.90;;;;;;4995369;28;20013;-72
2021/05/06 14:38:02;;;;;;;;;;;18.50;99.90;;;;;;5013245;28;19913;-72
2021/05/06 14:40:29;;;;;;;;;;;18.50;99.90;;;;;;5012878;28;20234;-72
2021/05/06 14:42:55;;;;;;;;;;;18.60;99.90;;;;;;5014624;28;20001;-72
2021/05/06 14:45:22;;;;;;;;;;;18.60;99.90;;;;;;5017181;28;19941;-73
2021/05/06 14:47:49;;;;;;;;;;;18.60;99.90;;;;;;5013622;28;19910;-72
2021/05/06 14:50:16;;;;;;;;;;;18.50;99.90;;;;;;5014384;28;20488;-73
2021/05/06 14:52:43;;;;;;;;;;;18.40;99.90;;;;;;5011991;28;19978;-73
2021/05/06 14:55:11;;;;;;;;;;;18.30;99.90;;;;;;5011730;28;20299;-73
2021/05/06 14:57:40;;;;;;;;;;;18.30;99.90;;;;;;5011875;28;20369;-74
2021/05/06 15:00:07;;;;;;;;;;;18.30;99.90;;;;;;5011725;28;20574;-72
2021/05/06 15:02:34;;;;;;;;;;;18.30;99.90;;;;;;5011681;28;19925;-74
2021/05/06 15:05:01;;;;;;;;;;;18.30;99.90;;;;;;5011563;28;19909;-71
2021/05/06 15:07:28;;;;;;;;;;;18.30;99.90;;;;;;5011700;28;19996;-73
2021/05/06 15:09:55;;;;;;;;;;;18.30;99.90;;;;;;5011506;28;20391;-73
2021/05/06 15:12:21;;;;;;;;;;;18.30;99.90;;;;;;5011490;28;20247;-73
2021/05/06 15:14:48;;;;;;;;;;;18.30;99.90;;;;;;4993776;28;20626;-74
2021/05/06 15:17:14;;;;;;;;;;;18.30;99.90;;;;;;5011724;28;19992;-73
2021/05/06 15:19:41;;;;;;;;;;;18.30;99.90;;;;;;5011541;28;20288;-73
2021/05/06 15:22:08;;;;;;;;;;;18.30;99.90;;;;;;5011350;28;19917;-73
2021/05/06 15:24:34;;;;;;;;;;;18.30;99.90;;;;;;5011403;28;19910;-74
2021/05/06 15:27:01;;;;;;;;;;;18.30;99.90;;;;;;5010989;28;20414;-73
2021/05/06 15:29:28;;;;;;;;;;;18.20;99.90;;;;;;5011332;28;19985;-73
2021/05/06 15:31:54;;;;;;;;;;;18.20;99.90;;;;;;5011561;28;20291;-73
2021/05/06 15:34:21;;;;;;;;;;;18.20;99.90;;;;;;5011330;28;20356;-72
2021/05/06 15:36:49;;;;;;;;;;;18.20;99.90;;;;;;5011001;28;19964;-73
2021/05/06 15:39:16;;;;;;;;;;;18.20;99.90;;;;;;5010695;28;19913;-73
2021/05/06 15:41:43;;;;;;;;;;;18.30;99.90;;;;;;4989866;28;20365;-73
2021/05/06 15:44:09;;;;;;;;;;;18.30;99.90;;;;;;4991639;28;19941;-74
2021/05/06 15:46:36;;;;;;;;;;;18.30;99.90;;;;;;4991802;28;19910;-74
2021/05/06 15:49:05;;;;;;;;;;;18.30;99.90;;;;;;4991532;28;19922;-74
2021/05/06 15:51:32;;;;;;;;;;;18.20;99.90;;;;;;4991097;28;19910;-73
2021/05/06 15:53:59;;;;;;;;;;;18.30;99.90;;;;;;4991434;28;19923;-72
2021/05/06 15:56:26;;;;;;;;;;;18.30;99.90;;;;;;4991448;28;19914;-74
2021/05/06 15:58:54;;;;;;;;;;;18.20;99.90;;;;;;4991450;28;19918;-74
2021/05/06 16:01:21;;;;;;;;;;;18.20;99.90;;;;;;4991491;28;20055;-74
2021/05/06 16:03:58;;;;;;;;;;;18.30;99.90;;;;;;4991513;28;20323;-71
2021/05/06 16:06:24;;;;;;;;;;;18.20;99.90;;;;;;4991220;28;19917;-75
2021/05/06 16:08:51;;;;;;;;;;;18.20;99.90;;;;;;4991170;28;20369;-73
2021/05/06 16:11:17;;;;;;;;;;;18.30;99.90;;;;;;4991471;28;19960;-73
2021/05/06 16:13:44;;;;;;;;;;;18.20;99.90;;;;;;4991459;28;20361;-70
2021/05/06 16:16:11;;;;;;;;;;;18.20;99.90;;;;;;4991459;28;20368;-73
2021/05/06 16:18:44;;;;;;;;;;;18.20;99.90;;;;;;4990531;28;19914;-74
2021/05/06 16:21:10;;;;;;;;;;;18.20;99.90;;;;;;4991877;28;20443;-73
2021/05/06 16:23:39;;;;;;;;;;;18.20;99.90;;;;;;4991316;28;19921;-73
2021/05/06 16:26:10;;;;;;;;;;;18.20;99.90;;;;;;4991379;28;19917;-73
2021/05/06 16:28:37;;;;;;;;;;;18.20;99.90;;;;;;4991394;28;19910;-74
2021/05/06 16:31:04;;;;;;;;;;;18.20;99.90;;;;;;4990906;28;19922;-73
2021/05/06 16:33:34;;;;;;;;;;;18.20;99.90;;;;;;4991254;28;19918;-74
2021/05/06 16:39:37;;;;;;;;;;;18.20;99.90;;;;;;4991058;28;19921;-73
2021/05/06 16:41:42;;;;;;;;;;;18.30;99.90;;;;;;4990678;28;19959;-73
2021/05/06 16:46:44;;;;;;;;;;;18.30;99.90;;;;;;5010680;28;19948;-73
2021/05/06 16:49:14;;;;;;;;;;;18.30;99.90;;;;;;5010658;28;19996;-73
2021/05/06 16:51:40;;;;;;;;;;;18.30;99.90;;;;;;5010691;28;19913;-73
2021/05/06 16:54:07;;;;;;;;;;;18.30;99.90;;;;;;5011735;28;19917;-73
2021/05/06 16:56:34;;;;;;;;;;;18.30;99.90;;;;;;5014261;28;20368;-74
2021/05/06 16:59:01;;;;;;;;;;;18.30;99.90;;;;;;5013918;28;19921;-73
2021/05/06 17:01:28;;;;;;;;;;;18.30;99.90;;;;;;5014066;28;19918;-74
2021/05/06 17:03:54;;;;;;;;;;;18.30;99.90;;;;;;5013963;28;20280;-74
2021/05/06 17:06:21;;;;;;;;;;;18.30;99.90;;;;;;5014047;28;19910;-74
2021/05/06 17:08:47;;;;;;;;;;;18.30;99.90;;;;;;5014567;28;19910;-74
2021/05/06 17:11:15;;;;;;;;;;;18.30;99.90;;;;;;5015995;28;20364;-74
2021/05/06 17:13:42;;;;;;;;;;;18.30;99.90;;;;;;5015887;28;20042;-73
2021/05/06 17:16:09;;;;;;;;;;;18.30;99.90;;;;;;5016041;28;19909;-74
2021/05/06 17:18:35;;;;;;;;;;;18.30;99.90;;;;;;5015752;28;20004;-74
2021/05/06 17:21:02;;;;;;;;;;;18.30;99.90;;;;;;5015486;28;19924;-73
2021/05/06 17:23:29;;;;;;;;;;;18.30;99.90;;;;;;5014711;28;19909;-73
2021/05/06 17:25:56;;;;;;;;;;;18.30;99.90;;;;;;5015512;28;19944;-72
2021/05/06 17:28:23;;;;;;;;;;;18.30;99.90;;;;;;5015673;28;20280;-73
2021/05/06 17:30:49;;;;;;;;;;;18.30;99.90;;;;;;5015320;28;19944;-72
2021/05/06 17:33:16;;;;;;;;;;;18.30;99.90;;;;;;5015480;28;19933;-72
2021/05/06 17:35:43;;;;;;;;;;;18.30;99.90;;;;;;5015323;28;19910;-73
2021/05/06 17:38:10;;;;;;;;;;;18.40;99.90;;;;;;5015128;28;20017;-72
2021/05/06 17:40:36;;;;;;;;;;;18.30;99.90;;;;;;5015331;28;20048;-73
2021/05/06 17:43:03;;;;;;;;;;;18.30;99.90;;;;;;4997496;28;20344;-73
2021/05/06 17:45:31;;;;;;;;;;;18.30;99.90;;;;;;5015247;28;19977;-72
2021/05/06 17:47:57;;;;;;;;;;;18.30;99.90;;;;;;5015266;28;19909;-73
2021/05/06 17:50:26;;;;;;;;;;;18.30;99.90;;;;;;5015255;28;19910;-74
2021/05/06 17:52:54;;;;;;;;;;;18.40;99.90;;;;;;5014590;28;19917;-74
2021/05/06 17:55:21;;;;;;;;;;;18.40;99.90;;;;;;5015119;28;20281;-73
2021/05/06 17:57:48;;;;;;;;;;;18.40;99.90;;;;;;5015210;28;20380;-74
2021/05/06 18:00:15;;;;;;;;;;;18.40;99.90;;;;;;5015027;28;19910;-74
2021/05/06 18:02:42;;;;;;;;;;;18.40;99.90;;;;;;5014828;28;19917;-74
2021/05/06 18:05:14;;;;;;;;;;;18.40;99.90;;;;;;5014653;28;19976;-74
2021/05/06 18:07:41;;;;;;;;;;;18.40;99.90;;;;;;5014760;28;19910;-74